Time;durP1;ratioP1;P1;durP2;ratioP2;P2;SDS_P1;SDS_P2;PMS_P1;PMS_P2;Temp;Humidity;BMP_temperature;BMP_pressure;BME280_temperature;BME280_humidity;BME280_pressure;Samples;Min_cycle;Max_cycle;Signal;HPM_P1;HPM_P2
2021/06/19 00:00:52;;;;;;;6.10;5.23;;;;;;;;;;5003790;28;20178;-90
2021/06/19 00:03:56;;;;;;;6.73;5.47;;;;;;;;;;5003788;28;20178;-91
2021/06/19 00:07:04;;;;;;;5.90;5.20;;;;;;;;;;5003775;28;20182;-91
2021/06/19 00:10:11;;;;;;;6.87;6.10;;;;;;;;;;5003947;28;20174;-91
2021/06/19 00:13:15;;;;;;;6.53;5.83;;;;;;;;;;5003907;28;20704;-91
2021/06/19 00:16:22;;;;;;;6.27;5.40;;;;;;;;;;5004414;28;20186;-91
2021/06/19 00:19:26;;;;;;;7.67;5.87;;;;;;;;;;5004323;28;20201;-91
2021/06/19 00:22:31;;;;;;;8.40;6.30;;;;;;;;;;5016733;28;20221;-90
2021/06/19 00:25:35;;;;;;;13.87;6.40;;;;;;;;;;5004229;28;20201;-91
2021/06/19 00:28:39;;;;;;;7.90;5.60;;;;;;;;;;5019075;28;20173;-90
2021/06/19 00:31:44;;;;;;;10.17;5.77;;;;;;;;;;5030053;28;20212;-91
2021/06/19 00:34:48;;;;;;;10.63;6.00;;;;;;;;;;5007537;28;20178;-91
2021/06/19 00:37:53;;;;;;;8.60;6.23;;;;;;;;;;5007172;28;20625;-91
2021/06/19 00:40:57;;;;;;;6.77;5.27;;;;;;;;;;5007236;28;20209;-91
2021/06/19 00:44:03;;;;;;;6.60;6.00;;;;;;;;;;5017875;28;20205;-91
2021/06/19 00:47:08;;;;;;;10.17;6.23;;;;;;;;;;5017991;28;20644;-91
2021/06/19 00:50:13;;;;;;;8.93;6.30;;;;;;;;;;5006739;28;20193;-91
2021/06/19 00:53:17;;;;;;;6.67;6.07;;;;;;;;;;5018483;28;20225;-84
2021/06/19 00:56:22;;;;;;;8.87;5.60;;;;;;;;;;5018403;28;20513;-86
2021/06/19 00:59:26;;;;;;;12.23;6.37;;;;;;;;;;5006634;28;20209;-87
2021/06/19 01:02:30;;;;;;;8.43;5.93;;;;;;;;;;5006477;28;20224;-88
2021/06/19 01:05:34;;;;;;;9.33;6.30;;;;;;;;;;5006644;28;20182;-87
2021/06/19 01:08:38;;;;;;;7.53;6.03;;;;;;;;;;5006985;28;20174;-87
2021/06/19 01:11:43;;;;;;;8.50;6.17;;;;;;;;;;5017991;28;20212;-87
2021/06/19 01:14:47;;;;;;;6.90;6.20;;;;;;;;;;5017687;28;20537;-87
2021/06/19 01:17:51;;;;;;;7.43;6.73;;;;;;;;;;5006658;28;20652;-87
2021/06/19 01:20:56;;;;;;;7.77;6.67;;;;;;;;;;5017338;28;20221;-87
2021/06/19 01:24:00;;;;;;;7.57;6.63;;;;;;;;;;5018309;28;20182;-87
2021/06/19 01:27:04;;;;;;;8.00;6.83;;;;;;;;;;5018401;28;20186;-88
2021/06/19 01:30:09;;;;;;;8.77;6.63;;;;;;;;;;5019155;28;20178;-87
2021/06/19 01:33:16;;;;;;;8.20;6.60;;;;;;;;;;5017576;28;20221;-88
2021/06/19 01:36:21;;;;;;;7.80;7.00;;;;;;;;;;5017619;28;20178;-87
2021/06/19 01:39:25;;;;;;;6.63;5.83;;;;;;;;;;5005317;28;20549;-88
2021/06/19 01:42:29;;;;;;;7.43;6.67;;;;;;;;;;5028375;28;20224;-87
2021/06/19 01:45:35;;;;;;;7.63;6.93;;;;;;;;;;5005754;28;20177;-87
2021/06/19 01:48:40;;;;;;;7.03;6.30;;;;;;;;;;5005555;28;20185;-88
2021/06/19 01:51:44;;;;;;;8.57;6.50;;;;;;;;;;5016171;28;20221;-87
2021/06/19 01:54:52;;;;;;;10.37;6.53;;;;;;;;;;5005781;28;20186;-87
2021/06/19 01:57:57;;;;;;;9.23;7.47;;;;;;;;;;5016135;28;20182;-87
2021/06/19 02:01:04;;;;;;;9.20;6.73;;;;;;;;;;5016154;28;20213;-88
2021/06/19 02:04:08;;;;;;;8.13;7.33;;;;;;;;;;5004655;28;20193;-88
2021/06/19 02:07:12;;;;;;;13.07;7.50;;;;;;;;;;5016265;28;20173;-87
2021/06/19 02:10:20;;;;;;;8.60;7.40;;;;;;;;;;5005158;28;20182;-87
2021/06/19 02:13:26;;;;;;;9.77;7.57;;;;;;;;;;5004864;28;20217;-87
2021/06/19 02:16:30;;;;;;;13.10;7.70;;;;;;;;;;5005234;28;20181;-87
2021/06/19 02:19:35;;;;;;;9.90;7.70;;;;;;;;;;5016670;28;20209;-87
2021/06/19 02:22:39;;;;;;;8.23;7.43;;;;;;;;;;5004996;28;20688;-88
2021/06/19 02:25:46;;;;;;;7.83;7.13;;;;;;;;;;5004894;28;20197;-87
2021/06/19 02:28:50;;;;;;;8.10;7.27;;;;;;;;;;5016568;28;20538;-87
2021/06/19 02:31:54;;;;;;;8.83;7.57;;;;;;;;;;5005903;28;20217;-87
2021/06/19 02:34:58;;;;;;;8.83;8.03;;;;;;;;;;5006010;28;20177;-87
2021/06/19 02:38:04;;;;;;;9.40;8.50;;;;;;;;;;5016331;28;20182;-87
2021/06/19 02:41:08;;;;;;;14.90;8.40;;;;;;;;;;5004969;28;20229;-87
2021/06/19 02:44:12;;;;;;;9.47;8.07;;;;;;;;;;5016471;28;20181;-87
2021/06/19 02:47:16;;;;;;;8.93;8.13;;;;;;;;;;5015960;28;20173;-87
2021/06/19 02:50:23;;;;;;;11.57;8.43;;;;;;;;;;5003917;28;20510;-87
2021/06/19 02:53:27;;;;;;;9.03;8.10;;;;;;;;;;5016364;28;20564;-87
2021/06/19 02:56:32;;;;;;;10.17;7.80;;;;;;;;;;5015499;28;20197;-88
2021/06/19 02:59:37;;;;;;;10.47;7.80;;;;;;;;;;5015156;28;20201;-87
2021/06/19 03:02:42;;;;;;;13.30;7.87;;;;;;;;;;5004136;28;20221;-87
2021/06/19 03:05:48;;;;;;;12.43;7.83;;;;;;;;;;5004175;28;20181;-87
2021/06/19 03:08:52;;;;;;;9.53;7.87;;;;;;;;;;5014965;28;20181;-88
2021/06/19 03:11:57;;;;;;;9.60;7.70;;;;;;;;;;5002123;28;20213;-87
2021/06/19 03:15:01;;;;;;;9.73;7.60;;;;;;;;;;5013521;28;20182;-87
2021/06/19 03:18:06;;;;;;;10.27;8.80;;;;;;;;;;5002511;28;20185;-87
2021/06/19 03:21:10;;;;;;;9.83;8.90;;;;;;;;;;5012917;28;20230;-87
2021/06/19 03:24:15;;;;;;;12.43;8.47;;;;;;;;;;5024606;28;20178;-87
2021/06/19 03:27:20;;;;;;;9.80;8.90;;;;;;;;;;5002120;28;20182;-87
2021/06/19 03:30:26;;;;;;;10.90;7.50;;;;;;;;;;5001978;28;20173;-87
2021/06/19 03:33:30;;;;;;;10.57;8.47;;;;;;;;;;5013090;28;20217;-87
2021/06/19 03:36:34;;;;;;;9.60;8.67;;;;;;;;;;5012896;28;20198;-87
2021/06/19 03:39:38;;;;;;;16.50;14.93;;;;;;;;;;5013023;28;20197;-87
2021/06/19 03:42:43;;;;;;;11.67;9.27;;;;;;;;;;5001547;28;20224;-88
2021/06/19 03:45:47;;;;;;;9.80;7.77;;;;;;;;;;5013166;28;20181;-87
2021/06/19 03:48:51;;;;;;;13.10;8.80;;;;;;;;;;5013187;28;20177;-90
2021/06/19 03:51:55;;;;;;;11.03;9.03;;;;;;;;;;5017272;22;20212;-74
2021/06/19 03:55:00;;;;;;;12.87;8.70;;;;;;;;;;5033122;28;20215;-72
2021/06/19 03:58:04;;;;;;;9.10;7.83;;;;;;;;;;5033399;28;20575;-73
2021/06/19 04:01:09;;;;;;;12.17;8.90;;;;;;;;;;5032548;28;20220;-74
2021/06/19 04:04:13;;;;;;;14.97;9.30;;;;;;;;;;5037088;28;20184;-73
2021/06/19 04:07:18;;;;;;;60.67;12.13;;;;;;;;;;5036940;28;20216;-73
2021/06/19 04:10:25;;;;;;;14.17;8.57;;;;;;;;;;5036860;28;20180;-74
2021/06/19 04:13:29;;;;;;;10.37;8.83;;;;;;;;;;5036925;28;20642;-73
2021/06/19 04:16:33;;;;;;;16.23;8.20;;;;;;;;;;5035643;28;20694;-74
2021/06/19 04:19:38;;;;;;;10.33;8.63;;;;;;;;;;5036651;28;20173;-74
2021/06/19 04:22:43;;;;;;;9.70;8.70;;;;;;;;;;5035926;28;20177;-73
2021/06/19 04:25:47;;;;;;;11.30;7.57;;;;;;;;;;5036680;28;20180;-74
2021/06/19 04:28:51;;;;;;;9.10;8.20;;;;;;;;;;5036327;28;20181;-73
2021/06/19 04:31:57;;;;;;;9.50;7.73;;;;;;;;;;5036608;28;20173;-73
2021/06/19 04:35:01;;;;;;;9.10;8.30;;;;;;;;;;5036265;28;20177;-73
2021/06/19 04:38:05;;;;;;;9.97;8.17;;;;;;;;;;5035594;28;20212;-73
2021/06/19 04:41:21;;;;;;;10.27;8.20;;;;;;;;;;5035330;28;20208;-73
2021/06/19 04:47:33;;;;;;;9.73;8.00;;;;;;;;;;5036043;28;20216;-73
2021/06/19 04:50:37;;;;;;;14.83;8.30;;;;;;;;;;5035213;28;20181;-74
2021/06/19 04:53:41;;;;;;;9.43;8.53;;;;;;;;;;5035749;28;20200;-74
2021/06/19 04:56:46;;;;;;;11.63;8.47;;;;;;;;;;5035769;28;20212;-74
2021/06/19 04:59:50;;;;;;;9.70;8.67;;;;;;;;;;5036070;28;20647;-73
2021/06/19 05:02:55;;;;;;;12.13;8.50;;;;;;;;;;5034939;28;20521;-73
2021/06/19 05:06:01;;;;;;;9.90;8.73;;;;;;;;;;5034745;28;20209;-73
2021/06/19 05:09:06;;;;;;;9.67;8.23;;;;;;;;;;5035900;28;20185;-74
2021/06/19 05:12:10;;;;;;;13.80;9.30;;;;;;;;;;5035713;28;20173;-72
2021/06/19 05:15:18;;;;;;;12.33;8.37;;;;;;;;;;5035788;28;20181;-72
2021/06/19 05:18:22;;;;;;;14.37;9.07;;;;;;;;;;5037552;22;20201;-71
2021/06/19 05:21:26;;;;;;;12.73;8.83;;;;;;;;;;5038871;28;20223;-71
2021/06/19 05:24:31;;;;;;;12.73;9.17;;;;;;;;;;5035221;28;20176;-71
2021/06/19 05:27:35;;;;;;;12.00;8.87;;;;;;;;;;5035101;28;20212;-72
2021/06/19 05:30:39;;;;;;;11.20;9.07;;;;;;;;;;5035187;28;20181;-72
2021/06/19 05:33:43;;;;;;;13.00;10.17;;;;;;;;;;5035272;28;20172;-72
2021/06/19 05:36:48;;;;;;;10.33;8.93;;;;;;;;;;5035192;28;20224;-72
2021/06/19 05:39:54;;;;;;;11.47;8.90;;;;;;;;;;5035282;28;20644;-72
2021/06/19 05:42:58;;;;;;;10.20;7.80;;;;;;;;;;5035029;28;20177;-72
2021/06/19 05:46:02;;;;;;;10.70;8.33;;;;;;;;;;5034329;28;20512;-72
2021/06/19 05:49:07;;;;;;;11.87;8.10;;;;;;;;;;5035138;28;20525;-72
2021/06/19 05:52:11;;;;;;;9.37;7.57;;;;;;;;;;5034541;28;20177;-72
2021/06/19 05:55:16;;;;;;;13.30;7.93;;;;;;;;;;5034686;28;20192;-72
2021/06/19 05:58:20;;;;;;;11.57;7.80;;;;;;;;;;5034547;28;20220;-72
2021/06/19 06:01:24;;;;;;;14.90;7.70;;;;;;;;;;5034473;28;20594;-72
2021/06/19 06:04:30;;;;;;;10.37;7.07;;;;;;;;;;5034656;28;20200;-72
2021/06/19 06:07:33;;;;;;;8.77;6.90;;;;;;;;;;5034505;28;20221;-72
2021/06/19 06:10:40;;;;;;;11.33;7.17;;;;;;;;;;5032478;28;20188;-72
2021/06/19 06:13:44;;;;;;;9.30;6.97;;;;;;;;;;5033849;28;20189;-71
2021/06/19 06:16:48;;;;;;;8.87;6.43;;;;;;;;;;5033690;28;20213;-71
2021/06/19 06:19:52;;;;;;;9.73;6.87;;;;;;;;;;5033560;28;20206;-71
2021/06/19 06:22:56;;;;;;;12.67;6.70;;;;;;;;;;5033652;28;20209;-71
2021/06/19 06:26:01;;;;;;;14.83;6.37;;;;;;;;;;5033455;28;20632;-71
2021/06/19 06:29:05;;;;;;;9.80;6.07;;;;;;;;;;5033604;28;20187;-72
2021/06/19 06:32:09;;;;;;;11.17;6.43;;;;;;;;;;5033187;28;20187;-71
2021/06/19 06:35:14;;;;;;;9.70;6.00;;;;;;;;;;5034031;28;20175;-72
2021/06/19 06:38:18;;;;;;;10.00;6.43;;;;;;;;;;5034121;28;20692;-72
2021/06/19 06:41:24;;;;;;;9.90;5.93;;;;;;;;;;5033923;28;20209;-72
2021/06/19 06:44:31;;;;;;;13.27;6.87;;;;;;;;;;5034088;28;20177;-72
2021/06/19 06:47:36;;;;;;;16.80;6.67;;;;;;;;;;5033913;28;20218;-72
2021/06/19 06:50:41;;;;;;;15.13;6.53;;;;;;;;;;5032303;28;20199;-71
2021/06/19 06:53:45;;;;;;;13.13;6.57;;;;;;;;;;5033169;28;20529;-71
2021/06/19 06:56:49;;;;;;;20.20;6.60;;;;;;;;;;5032939;28;20220;-71
2021/06/19 06:59:54;;;;;;;11.83;5.73;;;;;;;;;;5033168;28;20179;-71
2021/06/19 07:02:59;;;;;;;12.77;6.47;;;;;;;;;;5033632;28;20210;-72
2021/06/19 07:06:03;;;;;;;17.23;6.40;;;;;;;;;;5032603;28;20185;-72
2021/06/19 07:09:07;;;;;;;11.00;6.00;;;;;;;;;;5033910;28;20195;-72
2021/06/19 07:12:12;;;;;;;79.17;10.27;;;;;;;;;;5033445;28;20612;-71
2021/06/19 07:15:18;;;;;;;13.00;5.50;;;;;;;;;;5032041;28;20200;-71
2021/06/19 07:18:24;;;;;;;9.60;5.60;;;;;;;;;;5032564;28;20682;-72
2021/06/19 07:21:29;;;;;;;11.00;5.93;;;;;;;;;;5032775;28;20209;-71
2021/06/19 07:24:35;;;;;;;11.53;5.67;;;;;;;;;;5033056;28;20520;-72
2021/06/19 07:27:40;;;;;;;10.57;5.97;;;;;;;;;;5033024;28;20561;-72
2021/06/19 07:30:44;;;;;;;10.80;6.00;;;;;;;;;;5032549;28;20177;-72
2021/06/19 07:33:48;;;;;;;10.65;5.15;;;;;;;;;;5033008;28;20644;-72
2021/06/19 07:36:53;;;;;;;12.10;5.63;;;;;;;;;;5032965;28;20223;-72
2021/06/19 07:39:57;;;;;;;14.15;5.78;;;;;;;;;;5033392;28;20197;-72
2021/06/19 07:43:03;;;;;;;8.05;5.22;;;;;;;;;;5032087;28;20222;-72
2021/06/19 07:46:07;;;;;;;8.80;5.72;;;;;;;;;;5032089;28;20205;-72
2021/06/19 07:49:12;;;;;;;10.35;4.90;;;;;;;;;;5032966;28;20524;-72
2021/06/19 07:52:16;;;;;;;13.40;5.57;;;;;;;;;;5032064;28;20669;-72
2021/06/19 07:55:20;;;;;;;11.93;4.80;;;;;;;;;;5032035;28;20202;-72
2021/06/19 07:58:24;;;;;;;10.60;6.13;;;;;;;;;;5032803;28;20199;-72
2021/06/19 08:01:28;;;;;;;11.27;5.80;;;;;;;;;;5033298;28;20215;-72
2021/06/19 08:04:34;;;;;;;10.02;5.35;;;;;;;;;;5032794;28;20183;-72
2021/06/19 08:07:37;;;;;;;8.10;5.03;;;;;;;;;;5032649;28;20223;-72
2021/06/19 08:10:42;;;;;;;12.25;5.80;;;;;;;;;;5032709;28;20521;-72
2021/06/19 08:13:46;;;;;;;11.70;5.47;;;;;;;;;;5033241;28;20183;-72
2021/06/19 08:16:52;;;;;;;10.82;5.45;;;;;;;;;;5032652;28;20220;-72
2021/06/19 08:19:56;;;;;;;9.85;5.00;;;;;;;;;;5031721;28;20211;-72
2021/06/19 08:23:01;;;;;;;10.18;5.18;;;;;;;;;;5032864;28;20219;-73
2021/06/19 08:26:05;;;;;;;13.00;5.30;;;;;;;;;;5032523;28;20177;-72
2021/06/19 08:29:10;;;;;;;7.88;4.50;;;;;;;;;;5032790;28;20182;-72
2021/06/19 08:32:14;;;;;;;9.93;5.05;;;;;;;;;;5032782;28;20191;-72
2021/06/19 08:35:18;;;;;;;8.90;4.80;;;;;;;;;;5031800;28;20183;-72
2021/06/19 08:38:22;;;;;;;7.95;5.20;;;;;;;;;;5031866;28;20211;-72
2021/06/19 08:41:27;;;;;;;13.27;5.43;;;;;;;;;;5032422;28;20176;-72
2021/06/19 08:44:31;;;;;;;10.60;5.15;;;;;;;;;;5032708;28;20188;-72
2021/06/19 08:47:36;;;;;;;13.60;5.30;;;;;;;;;;5032355;28;20216;-72
2021/06/19 08:50:42;;;;;;;14.05;5.72;;;;;;;;;;5035837;28;20636;-72
2021/06/19 08:53:48;;;;;;;17.63;5.35;;;;;;;;;;5035350;28;20170;-72
2021/06/19 08:56:52;;;;;;;8.80;5.20;;;;;;;;;;5034906;28;20217;-72
2021/06/19 08:59:57;;;;;;;14.15;5.10;;;;;;;;;;5036032;28;20197;-72
2021/06/19 09:03:01;;;;;;;11.02;4.60;;;;;;;;;;5036138;28;20217;-73
2021/06/19 09:06:17;;;;;;;9.75;4.97;;;;;;;;;;5035835;28;20197;-72
2021/06/19 09:09:21;;;;;;;10.68;4.85;;;;;;;;;;5035573;28;20181;-73
2021/06/19 09:12:25;;;;;;;12.38;5.75;;;;;;;;;;5034664;28;20193;-72
2021/06/19 09:15:42;;;;;;;9.30;5.60;;;;;;;;;;5035743;28;20678;-73
2021/06/19 09:18:46;;;;;;;10.70;4.93;;;;;;;;;;5035286;28;20271;-72
2021/06/19 09:22:12;;;;;;;10.07;4.70;;;;;;;;;;5035327;28;20181;-73
2021/06/19 09:25:16;;;;;;;17.15;5.80;;;;;;;;;;5034484;28;20648;-72
2021/06/19 09:28:21;;;;;;;15.32;5.43;;;;;;;;;;5034428;28;20212;-73
2021/06/19 09:31:39;;;;;;;9.50;5.47;;;;;;;;;;5035749;28;20624;-73
2021/06/19 09:34:46;;;;;;;9.88;5.15;;;;;;;;;;5035037;28;20197;-72
2021/06/19 09:37:56;;;;;;;8.77;4.82;;;;;;;;;;5034025;28;20209;-72
2021/06/19 09:41:00;;;;;;;11.32;5.68;;;;;;;;;;5034966;28;20182;-72
2021/06/19 09:44:05;;;;;;;10.02;5.55;;;;;;;;;;5035256;28;20181;-73
2021/06/19 09:47:11;;;;;;;11.38;5.47;;;;;;;;;;5034978;28;20221;-72
2021/06/19 09:50:18;;;;;;;10.00;5.60;;;;;;;;;;5034853;28;20177;-72
2021/06/19 09:53:22;;;;;;;14.00;5.57;;;;;;;;;;5046165;23;20225;-70
2021/06/19 09:56:26;;;;;;;11.00;5.82;;;;;;;;;;5033874;28;20213;-70
2021/06/19 09:59:37;;;;;;;15.93;6.07;;;;;;;;;;5034193;28;20173;-71
2021/06/19 10:02:42;;;;;;;7.90;5.38;;;;;;;;;;5034766;28;20201;-71
2021/06/19 10:05:47;;;;;;;8.70;5.10;;;;;;;;;;5034021;28;20177;-71
2021/06/19 10:08:53;;;;;;;8.30;4.90;;;;;;;;;;5031000;28;20190;-70
2021/06/19 10:11:58;;;;;;;10.73;5.72;;;;;;;;;;5034284;28;20628;-71
2021/06/19 10:15:21;;;;;;;7.63;5.18;;;;;;;;;;5029129;28;20186;-70
2021/06/19 10:18:25;;;;;;;10.80;5.80;;;;;;;;;;5025733;28;20546;-70
2021/06/19 10:21:29;;;;;;;6.97;5.50;;;;;;;;;;5033962;28;20196;-72
2021/06/19 10:24:36;;;;;;;11.18;5.43;;;;;;;;;;5021708;28;20190;-70
2021/06/19 10:27:47;;;;;;;11.15;5.68;;;;;;;;;;5020327;28;20590;-70
2021/06/19 10:30:52;;;;;;;11.40;5.32;;;;;;;;;;5015017;28;20201;-71
2021/06/19 10:33:56;;;;;;;14.65;6.10;;;;;;;;;;5017928;28;20186;-70
2021/06/19 10:37:03;;;;;;;8.80;5.40;;;;;;;;;;5017908;28;20218;-70
2021/06/19 10:40:25;;;;;;;9.38;5.45;;;;;;;;;;5020001;28;20209;-70
2021/06/19 10:43:31;;;;;;;11.13;5.32;;;;;;;;;;5014199;28;20209;-72
2021/06/19 10:46:37;;;;;;;8.82;5.40;;;;;;;;;;5029188;28;20726;-70
2021/06/19 10:49:42;;;;;;;6.80;5.28;;;;;;;;;;5013576;28;20197;-70
2021/06/19 10:53:16;;;;;;;6.28;4.90;;;;;;;;;;5011551;28;20876;-70
2021/06/19 10:56:44;;;;;;;7.65;5.03;;;;;;;;;;5011554;28;20555;-70
2021/06/19 11:00:26;;;;;;;9.25;5.03;;;;;;;;;;5021849;28;20600;-70
2021/06/19 11:03:44;;;;;;;9.32;5.07;;;;;;;;;;5015070;28;20205;-70
2021/06/19 11:06:48;;;;;;;27.10;5.93;;;;;;;;;;5012798;28;20214;-70
2021/06/19 11:09:52;;;;;;;6.97;4.95;;;;;;;;;;5018064;28;20185;-70
2021/06/19 11:12:56;;;;;;;5.20;4.55;;;;;;;;;;5023294;28;20185;-70
2021/06/19 11:16:32;;;;;;;12.23;4.85;;;;;;;;;;5018995;28;20209;-70
2021/06/19 11:19:41;;;;;;;10.60;5.43;;;;;;;;;;5019705;28;20197;-70
2021/06/19 11:23:00;;;;;;;6.57;5.25;;;;;;;;;;5011182;28;20573;-70
2021/06/19 11:26:09;;;;;;;8.82;5.28;;;;;;;;;;5009878;28;20178;-70
2021/06/19 11:29:36;;;;;;;10.50;4.90;;;;;;;;;;5015453;28;20200;-70
2021/06/19 11:32:40;;;;;;;11.45;5.18;;;;;;;;;;5009852;28;20205;-74
2021/06/19 11:35:49;;;;;;;7.22;4.65;;;;;;;;;;5024603;28;20198;-71
2021/06/19 11:38:57;;;;;;;7.80;5.00;;;;;;;;;;5028483;28;20206;-70
2021/06/19 11:42:02;;;;;;;6.60;4.80;;;;;;;;;;5028268;28;20547;-71
2021/06/19 11:45:14;;;;;;;9.88;4.63;;;;;;;;;;5027281;28;20558;-71
2021/06/19 11:48:18;;;;;;;7.00;4.95;;;;;;;;;;5018608;28;20216;-70
2021/06/19 11:51:26;;;;;;;9.32;4.97;;;;;;;;;;5026313;28;20193;-70
2021/06/19 11:54:30;;;;;;;8.48;4.80;;;;;;;;;;5029082;28;20216;-70
2021/06/19 11:57:34;;;;;;;8.40;5.25;;;;;;;;;;5020523;28;20221;-70
2021/06/19 12:00:55;;;;;;;6.13;4.57;;;;;;;;;;5026402;28;20189;-70
2021/06/19 12:04:04;;;;;;;5.45;4.80;;;;;;;;;;5009907;28;20214;-70
2021/06/19 12:07:08;;;;;;;8.13;5.10;;;;;;;;;;5009629;28;20221;-70
2021/06/19 12:10:28;;;;;;;5.28;4.78;;;;;;;;;;5022260;28;20228;-69
2021/06/19 12:13:34;;;;;;;8.90;4.82;;;;;;;;;;5018639;28;20849;-69
2021/06/19 12:16:39;;;;;;;6.15;5.32;;;;;;;;;;5018314;28;20213;-70
2021/06/19 12:19:44;;;;;;;8.93;5.32;;;;;;;;;;5013469;28;20194;-70
2021/06/19 12:22:49;;;;;;;10.55;5.30;;;;;;;;;;5028605;28;20204;-70
2021/06/19 12:26:04;;;;;;;8.07;5.07;;;;;;;;;;5030539;28;20640;-70
2021/06/19 12:29:08;;;;;;;6.85;5.10;;;;;;;;;;5023465;28;20206;-70
2021/06/19 12:32:25;;;;;;;5.55;5.00;;;;;;;;;;5032035;28;20201;-70
2021/06/19 12:35:29;;;;;;;7.95;4.95;;;;;;;;;;5019766;28;20193;-70
2021/06/19 12:38:35;;;;;;;5.63;4.60;;;;;;;;;;5021624;28;20185;-70
2021/06/19 12:41:42;;;;;;;11.65;4.97;;;;;;;;;;5022776;28;20190;-70
2021/06/19 12:45:03;;;;;;;6.75;5.38;;;;;;;;;;5014966;28;20213;-70
2021/06/19 12:48:22;;;;;;;8.52;5.20;;;;;;;;;;5024476;28;20783;-70
2021/06/19 12:51:36;;;;;;;8.00;5.15;;;;;;;;;;5014094;28;20190;-71
2021/06/19 12:54:40;;;;;;;4.65;4.25;;;;;;;;;;5012613;28;20198;-71
2021/06/19 12:57:44;;;;;;;9.65;4.50;;;;;;;;;;5013664;28;20217;-70
2021/06/19 13:00:54;;;;;;;5.80;4.40;;;;;;;;;;5016386;28;20205;-71
2021/06/19 13:04:02;;;;;;;5.15;4.55;;;;;;;;;;5013224;28;20656;-70
2021/06/19 13:07:09;;;;;;;5.90;4.38;;;;;;;;;;5022856;28;20573;-71
2021/06/19 13:10:29;;;;;;;7.53;4.85;;;;;;;;;;5020401;28;20201;-71
2021/06/19 13:13:42;;;;;;;8.20;4.15;;;;;;;;;;5027535;28;20538;-70
2021/06/19 13:16:46;;;;;;;8.30;4.50;;;;;;;;;;5015299;28;20225;-72
2021/06/19 13:19:50;;;;;;;8.48;4.70;;;;;;;;;;5011214;28;20193;-71
2021/06/19 13:23:15;;;;;;;6.00;4.45;;;;;;;;;;5021952;28;20189;-71
2021/06/19 13:26:24;;;;;;;9.25;4.38;;;;;;;;;;5023155;28;20218;-70
2021/06/19 13:29:28;;;;;;;4.93;4.35;;;;;;;;;;5015278;28;20533;-71
2021/06/19 13:32:52;;;;;;;6.32;4.30;;;;;;;;;;5014993;28;20197;-70
2021/06/19 13:35:56;;;;;;;6.63;4.13;;;;;;;;;;5010987;28;20549;-71
2021/06/19 13:39:09;;;;;;;5.43;4.80;;;;;;;;;;5026878;28;20197;-71
2021/06/19 13:42:16;;;;;;;8.82;4.57;;;;;;;;;;5024334;28;20197;-71
2021/06/19 13:45:20;;;;;;;5.38;4.18;;;;;;;;;;5018976;28;20229;-71
2021/06/19 13:48:24;;;;;;;7.13;4.88;;;;;;;;;;5012900;28;20198;-70
2021/06/19 13:51:29;;;;;;;5.00;4.45;;;;;;;;;;5019606;28;20193;-71
2021/06/19 13:54:40;;;;;;;6.15;4.47;;;;;;;;;;4999755;28;20209;-71
2021/06/19 13:57:44;;;;;;;9.77;4.43;;;;;;;;;;5020318;28;20224;-71
2021/06/19 14:00:49;;;;;;;5.55;4.28;;;;;;;;;;5026794;28;20893;-70
2021/06/19 14:03:53;;;;;;;5.60;4.22;;;;;;;;;;5028018;28;20205;-70
2021/06/19 14:06:58;;;;;;;5.22;4.07;;;;;;;;;;5012594;28;20897;-71
2021/06/19 14:10:05;;;;;;;4.70;3.97;;;;;;;;;;5030825;28;20189;-71
2021/06/19 14:13:10;;;;;;;6.45;4.15;;;;;;;;;;5011389;28;20206;-71
2021/06/19 14:16:15;;;;;;;5.55;4.03;;;;;;;;;;5011268;28;20189;-71
2021/06/19 14:19:19;;;;;;;7.18;4.13;;;;;;;;;;5011184;28;20186;-71
2021/06/19 14:22:25;;;;;;;8.48;4.20;;;;;;;;;;5023662;28;20197;-71
2021/06/19 14:25:29;;;;;;;5.95;4.10;;;;;;;;;;5029743;28;20213;-70
2021/06/19 14:28:34;;;;;;;6.32;4.18;;;;;;;;;;5015291;28;20220;-71
2021/06/19 14:31:39;;;;;;;6.25;4.10;;;;;;;;;;5018905;28;20540;-70
2021/06/19 14:34:43;;;;;;;5.97;3.90;;;;;;;;;;5028028;28;20181;-70
2021/06/19 14:37:49;;;;;;;7.60;4.43;;;;;;;;;;5019487;28;20229;-70
2021/06/19 14:40:54;;;;;;;10.32;4.40;;;;;;;;;;5010769;28;20182;-70
2021/06/19 14:43:58;;;;;;;4.30;3.90;;;;;;;;;;5010706;28;20209;-70
2021/06/19 14:47:02;;;;;;;4.35;4.00;;;;;;;;;;5023672;28;20565;-70
2021/06/19 14:50:07;;;;;;;4.70;3.95;;;;;;;;;;5011431;28;20178;-70
2021/06/19 14:53:13;;;;;;;7.63;4.15;;;;;;;;;;5018166;28;20201;-70
2021/06/19 14:56:18;;;;;;;4.55;3.80;;;;;;;;;;5010440;28;20178;-70
2021/06/19 14:59:23;;;;;;;6.32;4.05;;;;;;;;;;5010513;28;20190;-70
2021/06/19 15:02:27;;;;;;;6.57;3.80;;;;;;;;;;5025039;28;20190;-70
2021/06/19 15:05:32;;;;;;;5.32;4.28;;;;;;;;;;5020768;28;20209;-70
2021/06/19 15:08:36;;;;;;;4.20;3.88;;;;;;;;;;5029844;28;20185;-72
2021/06/19 15:11:40;;;;;;;5.25;3.88;;;;;;;;;;5030068;28;20205;-70
2021/06/19 15:14:44;;;;;;;8.75;3.92;;;;;;;;;;5028561;28;20506;-70
2021/06/19 15:17:49;;;;;;;4.65;3.65;;;;;;;;;;5017281;28;20631;-70
2021/06/19 15:20:53;;;;;;;4.55;4.05;;;;;;;;;;5029757;28;20200;-70
2021/06/19 15:23:57;;;;;;;5.95;4.00;;;;;;;;;;5029705;28;20225;-70
2021/06/19 15:27:02;;;;;;;6.20;4.22;;;;;;;;;;5009431;28;20221;-71
2021/06/19 15:30:07;;;;;;;6.20;4.40;;;;;;;;;;5010147;28;20185;-69
2021/06/19 15:33:11;;;;;;;6.57;4.25;;;;;;;;;;5010145;28;20181;-70
2021/06/19 15:36:15;;;;;;;7.05;4.60;;;;;;;;;;5012051;28;20201;-70
2021/06/19 15:39:22;;;;;;;8.00;4.60;;;;;;;;;;5024374;28;20196;-70
2021/06/19 15:42:26;;;;;;;5.40;4.32;;;;;;;;;;5027491;28;20244;-70
2021/06/19 15:45:30;;;;;;;5.68;4.53;;;;;;;;;;5009726;28;20574;-70
2021/06/19 15:48:35;;;;;;;6.88;4.90;;;;;;;;;;5011518;28;20186;-70
2021/06/19 15:51:39;;;;;;;10.85;5.05;;;;;;;;;;5018344;28;20189;-71
2021/06/19 15:54:43;;;;;;;7.28;4.38;;;;;;;;;;5028463;28;20213;-72
2021/06/19 15:57:47;;;;;;;8.95;4.47;;;;;;;;;;5010436;28;20589;-72
2021/06/19 16:00:52;;;;;;;9.02;4.45;;;;;;;;;;5013685;28;20197;-72
2021/06/19 16:03:56;;;;;;;7.80;4.75;;;;;;;;;;5030548;28;20197;-72
2021/06/19 16:07:00;;;;;;;8.95;4.10;;;;;;;;;;5027786;28;20212;-72
2021/06/19 16:10:05;;;;;;;6.47;4.18;;;;;;;;;;5026222;28;20186;-71
2021/06/19 16:13:09;;;;;;;7.68;4.50;;;;;;;;;;5018309;28;20550;-72
2021/06/19 16:16:14;;;;;;;7.00;4.90;;;;;;;;;;5013472;28;20543;-73
2021/06/19 16:19:18;;;;;;;8.20;4.53;;;;;;;;;;5013364;28;20202;-72
2021/06/19 16:22:23;;;;;;;7.50;4.22;;;;;;;;;;5018235;28;20929;-72
2021/06/19 16:25:27;;;;;;;5.55;3.90;;;;;;;;;;5033089;28;20209;-72
2021/06/19 16:28:33;;;;;;;7.13;4.40;;;;;;;;;;5033883;28;20174;-72
2021/06/19 16:31:37;;;;;;;7.78;4.60;;;;;;;;;;5018256;28;20656;-72
2021/06/19 16:34:41;;;;;;;10.38;4.25;;;;;;;;;;5028819;28;20651;-72
2021/06/19 16:37:45;;;;;;;7.97;4.47;;;;;;;;;;5032841;28;20215;-72
2021/06/19 16:40:49;;;;;;;6.30;4.47;;;;;;;;;;5025046;28;20188;-72
2021/06/19 16:43:53;;;;;;;5.78;4.07;;;;;;;;;;5001774;28;20193;-72
2021/06/19 16:46:58;;;;;;;8.95;4.53;;;;;;;;;;5023298;28;20667;-72
2021/06/19 16:50:04;;;;;;;8.63;4.40;;;;;;;;;;5032743;28;20214;-72
2021/06/19 16:53:09;;;;;;;6.80;4.28;;;;;;;;;;5030371;28;20219;-72
2021/06/19 16:56:13;;;;;;;6.28;4.20;;;;;;;;;;5031708;28;20195;-72
2021/06/19 16:59:18;;;;;;;5.13;4.47;;;;;;;;;;5032428;28;20541;-72
2021/06/19 17:02:22;;;;;;;10.43;5.15;;;;;;;;;;5027074;28;20216;-72
2021/06/19 17:05:26;;;;;;;7.55;4.95;;;;;;;;;;5012082;28;20671;-72
2021/06/19 17:08:31;;;;;;;7.90;5.15;;;;;;;;;;5011718;28;20663;-72
2021/06/19 17:11:35;;;;;;;6.95;4.60;;;;;;;;;;5012457;28;20193;-71
2021/06/19 17:14:40;;;;;;;7.28;4.88;;;;;;;;;;5016944;28;20187;-71
2021/06/19 17:17:45;;;;;;;5.93;4.50;;;;;;;;;;5029302;28;20220;-72
2021/06/19 17:20:49;;;;;;;5.22;4.57;;;;;;;;;;5012254;28;20394;-72
2021/06/19 17:23:53;;;;;;;6.40;4.57;;;;;;;;;;5028618;28;20185;-72
2021/06/19 17:26:58;;;;;;;4.85;4.43;;;;;;;;;;5028243;28;20224;-72
2021/06/19 17:30:05;;;;;;;7.32;5.03;;;;;;;;;;5011698;28;20631;-72
2021/06/19 17:33:09;;;;;;;4.85;4.32;;;;;;;;;;5012048;28;20200;-72
2021/06/19 17:36:13;;;;;;;7.47;5.00;;;;;;;;;;5012521;28;20773;-72
2021/06/19 17:39:18;;;;;;;8.70;4.93;;;;;;;;;;5012018;28;20202;-71
2021/06/19 17:42:22;;;;;;;7.57;4.72;;;;;;;;;;5011235;28;20191;-72
2021/06/19 17:45:26;;;;;;;6.78;4.70;;;;;;;;;;5022070;28;20588;-72
2021/06/19 17:48:31;;;;;;;9.10;4.50;;;;;;;;;;5031259;28;20198;-71
2021/06/19 17:51:36;;;;;;;9.30;5.28;;;;;;;;;;5029554;28;20188;-72
2021/06/19 17:54:40;;;;;;;8.88;5.15;;;;;;;;;;5030616;28;20197;-72
2021/06/19 17:57:45;;;;;;;7.97;4.35;;;;;;;;;;5030919;28;20223;-71
2021/06/19 18:00:49;;;;;;;4.80;4.40;;;;;;;;;;5021766;28;20540;-71
2021/06/19 18:03:53;;;;;;;7.60;4.63;;;;;;;;;;5028529;28;20196;-72
2021/06/19 18:06:58;;;;;;;6.25;4.80;;;;;;;;;;5030442;28;20536;-71
2021/06/19 18:10:03;;;;;;;8.30;5.47;;;;;;;;;;5028045;28;20194;-72
2021/06/19 18:13:08;;;;;;;5.82;4.95;;;;;;;;;;5011105;28;20185;-71
2021/06/19 18:16:12;;;;;;;6.00;4.60;;;;;;;;;;5014327;28;20198;-71
2021/06/19 18:19:17;;;;;;;6.53;5.35;;;;;;;;;;5010751;28;20188;-72
2021/06/19 18:22:22;;;;;;;5.88;5.20;;;;;;;;;;5010734;28;20193;-72
2021/06/19 18:25:26;;;;;;;7.03;5.38;;;;;;;;;;5027908;23;20220;-73
2021/06/19 18:28:31;;;;;;;5.50;5.00;;;;;;;;;;4994744;28;20192;-71
2021/06/19 18:31:35;;;;;;;7.25;5.25;;;;;;;;;;5013845;28;20192;-71